createdAt,value
2023-02-24T00:06:32.705Z,1018
2023-02-24T00:16:32.797Z,1018
2023-02-24T00:26:32.665Z,1017
2023-02-24T00:36:32.676Z,1017
2023-02-24T00:46:32.773Z,1017
2023-02-24T00:56:32.785Z,1017
2023-02-24T01:06:32.696Z,1017
2023-02-24T01:16:32.715Z,1017
2023-02-24T01:26:32.705Z,1017
2023-02-24T01:36:32.689Z,1017
2023-02-24T01:46:32.782Z,1017
2023-02-24T01:56:32.701Z,1017
2023-02-24T02:06:32.792Z,1017
2023-02-24T02:16:32.833Z,1017
2023-02-24T02:26:32.779Z,1017
2023-02-24T02:36:32.803Z,1017
2023-02-24T02:46:32.750Z,1017
2023-02-24T02:56:32.805Z,1017
2023-02-24T03:06:32.790Z,1017
2023-02-24T03:16:32.796Z,1017
2023-02-24T03:26:32.788Z,1017
2023-02-24T03:36:32.747Z,1017
2023-02-24T03:46:32.794Z,1017
2023-02-24T03:56:32.835Z,1017
2023-02-24T04:06:32.918Z,1017
2023-02-24T04:16:32.876Z,1017
2023-02-24T04:26:34.136Z,1017
2023-02-24T04:36:32.797Z,1017
2023-02-24T04:46:33.598Z,1016
2023-02-24T04:56:32.832Z,1016
2023-02-24T05:06:32.966Z,1016
2023-02-24T05:16:32.944Z,1016
2023-02-24T05:26:32.854Z,1016
2023-02-24T05:36:32.883Z,1016
2023-02-24T05:46:32.983Z,1016
2023-02-24T05:56:32.928Z,1016
2023-02-24T06:06:32.972Z,1016
2023-02-24T06:16:32.974Z,1016
2023-02-24T06:26:32.896Z,1016
2023-02-24T06:36:32.986Z,1016
2023-02-24T06:46:32.915Z,1016
2023-02-24T06:56:32.912Z,1016
2023-02-24T07:06:33.027Z,1016
2023-02-24T07:16:33.045Z,1016
2023-02-24T07:26:32.948Z,1016
2023-02-24T07:36:32.934Z,1016
2023-02-24T07:46:33.069Z,1016
2023-02-24T07:56:32.992Z,1016
2023-02-24T08:06:32.927Z,1016
2023-02-24T08:16:32.948Z,1015
2023-02-24T08:26:33.112Z,1015
2023-02-24T08:36:32.925Z,1015
2023-02-24T08:46:33.183Z,1015
2023-02-24T08:56:33.039Z,1015
2023-02-24T09:06:32.985Z,1015
2023-02-24T09:16:33.002Z,1015
2023-02-24T09:26:33.081Z,1015
2023-02-24T09:36:32.926Z,1014
2023-02-24T09:46:33.101Z,1014
2023-02-24T09:56:32.950Z,1014
2023-02-24T10:06:32.991Z,1014
2023-02-24T10:16:32.962Z,1014
2023-02-24T10:26:32.946Z,1013
2023-02-24T10:36:32.948Z,1013
2023-02-24T10:46:40.854Z,1013
2023-02-24T10:56:32.884Z,1013
2023-02-24T11:06:32.918Z,1012
2023-02-24T11:16:32.868Z,1012
2023-02-24T11:26:32.888Z,1012
2023-02-24T11:36:32.883Z,1012
2023-02-24T11:46:32.944Z,1012
2023-02-24T11:56:32.818Z,1012
2023-02-24T12:06:32.864Z,1012
2023-02-24T12:16:32.875Z,1011
2023-02-24T12:26:32.856Z,1011
2023-02-24T12:36:32.850Z,1011
2023-02-24T12:46:32.858Z,1011
2023-02-24T12:56:32.821Z,1011
2023-02-24T13:06:32.835Z,1011
2023-02-24T13:16:32.899Z,1011
2023-02-24T13:26:34.402Z,1011
2023-02-24T13:36:32.765Z,1011
2023-02-24T13:46:32.773Z,1010
2023-02-24T13:56:32.777Z,1010
2023-02-24T14:06:32.823Z,1010
2023-02-24T14:16:32.848Z,1010
2023-02-24T14:26:32.766Z,1010
2023-02-24T14:36:32.731Z,1009
2023-02-24T14:46:32.891Z,1010
2023-02-24T14:56:32.819Z,1009
2023-02-24T15:06:32.801Z,1009
2023-02-24T15:16:32.806Z,1009
2023-02-24T15:26:32.803Z,1009
2023-02-24T15:36:32.718Z,1009
2023-02-24T15:46:32.805Z,1009
2023-02-24T15:56:32.716Z,1009
2023-02-24T16:06:32.781Z,1009
2023-02-24T16:16:32.775Z,1009
2023-02-24T16:26:32.756Z,1009
2023-02-24T16:36:32.716Z,1009
2023-02-24T16:46:32.755Z,1009
2023-02-24T16:56:32.683Z,1009
2023-02-24T17:06:32.724Z,1009
2023-02-24T17:16:32.751Z,1009
2023-02-24T17:36:32.801Z,1009
2023-02-24T17:46:32.767Z,1009
2023-02-24T17:56:32.745Z,1009
2023-02-24T18:06:32.707Z,1009
2023-02-24T18:16:32.818Z,1009
2023-02-24T18:26:32.664Z,1009
2023-02-24T18:36:32.715Z,1009
2023-02-24T18:46:32.820Z,1008
2023-02-24T18:56:32.694Z,1008
2023-02-24T19:06:32.678Z,1008
2023-02-24T19:16:32.719Z,1008
2023-02-24T19:26:32.683Z,1008
2023-02-24T19:36:32.674Z,1008
2023-02-24T19:46:32.630Z,1008
2023-02-24T19:56:32.715Z,1008
2023-02-24T20:06:32.698Z,1008
2023-02-24T20:16:32.747Z,1008
2023-02-24T20:26:32.732Z,1008
2023-02-24T20:36:32.735Z,1008
2023-02-24T20:46:32.696Z,1008
2023-02-24T20:56:32.678Z,1006
2023-02-24T21:06:32.718Z,1006
2023-02-24T21:16:32.739Z,1006
2023-02-24T21:26:32.719Z,1006
2023-02-24T21:36:32.685Z,1006
2023-02-24T21:46:32.695Z,1006
2023-02-24T21:56:32.705Z,1006
2023-02-24T22:06:32.632Z,1006
2023-02-24T22:16:32.690Z,1005
2023-02-24T22:26:32.634Z,1005
2023-02-24T22:36:32.630Z,1005
2023-02-24T22:46:32.749Z,1005
2023-02-24T22:56:32.615Z,1005
2023-02-24T23:06:32.686Z,1005
2023-02-24T23:16:32.637Z,1005
2023-02-24T23:26:32.591Z,1004
2023-02-24T23:36:32.657Z,1004
2023-02-24T23:46:32.612Z,1005
2023-02-24T23:56:32.646Z,1004
